Time;durP1;ratioP1;P1;durP2;ratioP2;P2;SDS_P1;SDS_P2;PMS_P1;PMS_P2;Temp;Humidity;BMP_temperature;BMP_pressure;BME280_temperature;BME280_humidity;BME280_pressure;Samples;Min_cycle;Max_cycle;Signal;HPM_P1;HPM_P2
2022/01/27 00:00:56;;;;;;;;;16.25;11.75;;;;;21.48;29.66;102806.75;5077230;27;45232;-61
2022/01/27 00:03:27;;;;;;;;;13.00;13.00;;;;;21.50;29.48;102804.94;5077334;27;45242;-62
2022/01/27 00:05:56;;;;;;;;;12.00;10.75;;;;;21.49;29.43;102808.47;5077025;27;45673;-62
2022/01/27 00:08:30;;;;;;;;;15.75;12.25;;;;;21.50;29.32;102810.19;5075668;27;45256;-61
2022/01/27 00:11:01;;;;;;;;;9.75;9.75;;;;;21.51;29.50;102800.50;5077182;27;45367;-64
2022/01/27 00:13:31;;;;;;;;;13.50;12.00;;;;;21.53;29.46;102804.84;5077191;27;45843;-65
2022/01/27 00:16:22;;;;;;;;;17.00;13.75;;;;;21.53;29.53;102804.84;5076736;27;47131;-67
2022/01/27 00:18:46;;;;;;;;;10.25;10.25;;;;;21.55;29.60;102796.88;5076663;27;45827;-67
2022/01/27 00:21:11;;;;;;;;;14.25;13.00;;;;;21.54;29.34;102790.75;5077124;28;45330;-57
2022/01/27 00:23:37;;;;;;;;;11.75;11.75;;;;;21.57;29.20;102800.34;5077271;28;45460;-67
2022/01/27 00:26:03;;;;;;;;;12.25;12.00;;;;;21.57;29.13;102795.91;5076692;27;46513;-65
2022/01/27 00:28:29;;;;;;;;;11.00;10.25;;;;;21.57;29.32;102788.00;5076816;27;45322;-67
2022/01/27 00:30:54;;;;;;;;;12.25;10.25;;;;;21.57;29.33;102789.78;5076932;27;45639;-66
2022/01/27 00:33:19;;;;;;;;;13.50;12.00;;;;;21.57;29.27;102788.00;5077010;27;45528;-67
2022/01/27 00:35:45;;;;;;;;;10.50;10.25;;;;;21.59;29.56;102783.59;5076491;27;46705;-67
2022/01/27 00:38:10;;;;;;;;;12.00;11.50;;;;;21.56;28.89;102775.72;5076847;27;45285;-62
2022/01/27 00:40:35;;;;;;;;;12.00;9.25;;;;;21.61;28.96;102779.13;5076707;27;45282;-67
2022/01/27 00:43:01;;;;;;;;;12.50;11.50;;;;;21.60;29.29;102766.84;5076691;27;45251;-66
2022/01/27 00:45:29;;;;;;;;;11.25;11.25;;;;;21.60;29.46;102772.13;5076341;27;46163;-67
2022/01/27 00:47:55;;;;;;;;;13.75;11.75;;;;;21.61;29.35;102770.34;5076409;27;45329;-65
2022/01/27 00:50:20;;;;;;;;;13.75;11.75;;;;;21.61;29.36;102760.66;5076494;27;45370;-67
2022/01/27 00:52:53;;;;;;;;;12.00;11.00;;;;;21.65;29.59;102765.84;5076654;27;45365;-66
2022/01/27 00:55:20;;;;;;;;;10.25;10.25;;;;;21.64;29.22;102761.50;5076219;27;47269;-67
2022/01/27 01:00:12;;;;;;;;;14.00;9.25;;;;;21.65;29.16;102748.22;5076773;27;45259;-66
2022/01/27 01:07:35;;;;;;;;;9.50;9.50;;;;;21.65;29.07;102737.69;5076275;27;45810;-66
2022/01/27 01:17:53;;;;;;;;;13.00;12.25;;;;;21.68;28.97;102737.59;5076120;27;45893;-63
2022/01/27 01:20:39;;;;;;;;;14.50;11.00;;;;;21.71;29.12;102741.91;5078545;27;45392;-62
2022/01/27 01:33:59;;;;;;;;;15.00;12.50;;;;;21.72;29.53;102736.56;5079834;27;45250;-57
2022/01/27 01:37:08;;;;;;;;;8.75;8.75;;;;;21.73;29.19;102729.53;5079224;27;47392;-51
2022/01/27 01:39:13;;;;;;;;;13.50;11.00;;;;;21.73;29.50;102733.03;5076306;28;45343;-59
2022/01/27 01:41:39;;;;;;;;;15.25;10.50;;;;;21.75;29.10;102725.09;5079530;27;45367;-61
2022/01/27 01:44:05;;;;;;;;;11.75;9.00;;;;;21.73;29.15;102726.91;5079491;27;45935;-62
2022/01/27 01:46:31;;;;;;;;;12.00;12.00;;;;;21.76;29.14;102732.09;5079178;27;46054;-62
2022/01/27 01:48:56;;;;;;;;;16.00;12.00;;;;;21.73;29.24;102722.47;5094860;27;45335;-62
2022/01/27 01:51:27;;;;;;;;;11.25;11.25;;;;;21.76;29.24;102719.75;5079269;27;45365;-62
2022/01/27 01:53:53;;;;;;;;;12.00;12.00;;;;;21.76;29.29;102716.25;5079384;27;45326;-59
2022/01/27 01:56:19;;;;;;;;;11.50;9.75;;;;;21.76;28.95;102716.25;5078852;27;45464;-61
2022/01/27 01:58:45;;;;;;;;;14.25;13.00;;;;;21.76;29.14;102713.63;5079277;27;45409;-62
2022/01/27 02:01:10;;;;;;;;;7.75;6.00;;;;;21.78;29.43;102709.13;5079207;27;45440;-62
2022/01/27 02:03:36;;;;;;;;;13.50;11.75;;;;;21.77;29.23;102702.16;5079327;28;45594;-62
2022/01/27 02:06:01;;;;;;;;;11.75;11.25;;;;;21.78;28.91;102694.16;5077699;28;47424;-59
2022/01/27 02:19:31;;;;;;;;;16.00;15.00;;;;;21.81;28.99;102690.56;5078599;28;45956;-61
2022/01/27 02:22:02;;;;;;;;;12.25;12.25;;;;;21.82;29.46;102694.94;5078931;27;45211;-62
2022/01/27 02:24:32;;;;;;;;;12.00;11.50;;;;;21.81;29.16;102692.34;5078914;27;45474;-58
2022/01/27 02:26:59;;;;;;;;;17.25;14.25;;;;;21.83;29.36;102695.81;5078615;27;45728;-62
2022/01/27 02:29:25;;;;;;;;;15.00;14.00;;;;;21.82;29.40;102687.00;5078548;27;45313;-63
2022/01/27 02:31:54;;;;;;;;;15.00;13.00;;;;;21.83;28.92;102688.75;5077643;27;45349;-62
2022/01/27 02:34:20;;;;;;;;;16.00;13.25;;;;;21.84;29.28;102690.47;5077576;28;45604;-63
2022/01/27 02:36:46;;;;;;;;;16.75;13.25;;;;;21.83;29.21;102685.25;5078646;27;46230;-64
2022/01/27 02:39:12;;;;;;;;;13.75;13.00;;;;;21.84;29.23;102674.63;5078489;28;45260;-63
2022/01/27 02:41:57;;;;;;;;;18.75;14.00;;;;;21.84;28.89;102677.28;5078394;27;45250;-63
2022/01/27 02:44:31;;;;;;;;;14.25;11.75;;;;;21.86;28.88;102679.84;5078533;27;45557;-62
2022/01/27 02:46:58;;;;;;;;;17.75;15.00;;;;;21.87;29.23;102677.19;5076856;28;46932;-62
2022/01/27 02:49:24;;;;;;;;;19.25;14.00;;;;;21.86;29.41;102659.63;5078288;27;45482;-61
2022/01/27 02:51:49;;;;;;;;;16.50;14.00;;;;;21.86;29.21;102662.25;5078248;27;45507;-61
2022/01/27 02:54:15;;;;;;;;;18.50;15.25;;;;;21.87;29.08;102655.19;5078698;27;45256;-60
2022/01/27 02:56:45;;;;;;;;;19.25;14.75;;;;;21.87;29.15;102661.34;5077960;27;45355;-63
2022/01/27 02:59:11;;;;;;;;;15.25;14.50;;;;;21.88;28.88;102654.28;5077994;27;45858;-63
2022/01/27 03:01:37;;;;;;;;;18.75;14.50;;;;;21.88;29.19;102656.91;5078171;27;45355;-62
2022/01/27 03:04:03;;;;;;;;;18.50;15.50;;;;;21.88;29.03;102665.69;5078264;27;45259;-63
2022/01/27 03:06:28;;;;;;;;;17.25;17.25;;;;;21.89;28.80;102659.50;5077889;27;46273;-63
2022/01/27 03:08:53;;;;;;;;;19.50;17.75;;;;;21.90;29.29;102665.66;5077927;27;45350;-63
2022/01/27 03:11:35;;;;;;;;;18.75;17.50;;;;;21.91;29.39;102657.69;5078217;27;45275;-62
2022/01/27 03:14:00;;;;;;;;;16.75;14.00;;;;;21.92;29.45;102658.56;5076805;28;45375;-63
2022/01/27 03:16:26;;;;;;;;;21.00;15.75;;;;;21.92;29.17;102650.63;5077711;27;46341;-63
2022/01/27 03:18:51;;;;;;;;;17.75;15.25;;;;;21.92;28.94;102654.13;5076550;28;45784;-62
2022/01/27 03:21:17;;;;;;;;;19.25;16.00;;;;;21.95;29.10;102652.31;5078136;27;45219;-62
2022/01/27 03:23:42;;;;;;;;;20.00;15.75;;;;;21.93;29.00;102645.31;5078010;27;45550;-62
2022/01/27 03:26:07;;;;;;;;;17.00;14.50;;;;;21.95;29.03;102652.31;5077550;27;46438;-65
2022/01/27 03:28:33;;;;;;;;;14.75;13.75;;;;;21.94;29.23;102651.44;5076288;28;45470;-63
2022/01/27 03:30:58;;;;;;;;;20.25;14.00;;;;;21.93;29.08;102644.44;5077656;27;45460;-64
2022/01/27 03:33:24;;;;;;;;;16.00;15.00;;;;;21.96;29.29;102643.47;5077802;27;45481;-62
2022/01/27 03:35:49;;;;;;;;;17.50;15.00;;;;;21.96;29.01;102654.03;5077470;27;46266;-62
2022/01/27 03:38:14;;;;;;;;;16.75;14.25;;;;;21.97;28.96;102655.78;5077702;28;45438;-65
2022/01/27 03:40:40;;;;;;;;;15.25;15.25;;;;;21.97;29.10;102655.78;5077712;27;45393;-62
2022/01/27 03:43:09;;;;;;;;;18.25;17.50;;;;;21.97;28.87;102651.34;5076227;28;45548;-63
2022/01/27 03:45:34;;;;;;;;;21.25;17.75;;;;;21.98;29.05;102654.84;5077222;27;45535;-63
2022/01/27 03:48:00;;;;;;;;;15.75;15.75;;;;;21.97;28.97;102651.34;5077314;27;45289;-60
2022/01/27 03:50:26;;;;;;;;;15.50;15.50;;;;;21.98;29.25;102657.50;5076275;28;45276;-61
2022/01/27 03:52:51;;;;;;;;;18.00;17.25;;;;;21.99;29.28;102653.94;5077576;27;45632;-55
2022/01/27 03:55:17;;;;;;;;;16.25;15.75;;;;;21.99;29.19;102646.88;5077686;27;45376;-60
2022/01/27 03:57:42;;;;;;;;;15.50;12.00;;;;;21.98;28.97;102652.22;5077192;27;45504;-58
2022/01/27 04:00:08;;;;;;;;;18.25;13.50;;;;;22.00;29.01;102650.38;5077341;27;45452;-59
2022/01/27 04:02:37;;;;;;;;;21.75;14.25;;;;;21.99;29.03;102649.50;5077374;28;45449;-62
2022/01/27 04:05:03;;;;;;;;;11.00;11.00;;;;;22.00;29.14;102656.53;5076890;27;45500;-59
2022/01/27 04:07:28;;;;;;;;;14.25;11.50;;;;;22.00;28.92;102643.31;5077119;27;45338;-62
2022/01/27 04:09:53;;;;;;;;;21.25;17.00;;;;;22.01;28.96;102636.25;5077104;27;45365;-63
2022/01/27 04:12:19;;;;;;;;;21.50;15.50;;;;;22.02;29.44;102645.91;5077515;27;45217;-63
2022/01/27 04:14:44;;;;;;;;;18.00;15.50;;;;;22.01;29.07;102649.47;5076990;27;45983;-54
2022/01/27 04:17:10;;;;;;;;;13.25;12.25;;;;;22.02;29.30;102640.63;5077075;27;45210;-60
2022/01/27 04:19:35;;;;;;;;;16.75;14.25;;;;;22.01;29.15;102641.53;5077062;27;45207;-54
2022/01/27 04:22:02;;;;;;;;;17.25;14.50;;;;;22.02;29.46;102638.88;5077159;27;45295;-54
2022/01/27 04:24:27;;;;;;;;;14.00;13.00;;;;;22.01;28.89;102638.91;5076779;27;46339;-52
2022/01/27 04:27:01;;;;;;;;;11.75;8.50;;;;;22.05;29.21;102643.16;5076833;27;45378;-50
2022/01/27 04:29:27;;;;;;;;;19.75;16.25;;;;;22.03;29.45;102640.59;5076778;27;45350;-53
2022/01/27 04:31:53;;;;;;;;;16.50;13.25;;;;;22.04;29.13;102652.00;5077061;27;45617;-57
2022/01/27 04:34:19;;;;;;;;;22.00;18.25;;;;;22.04;28.98;102646.72;5076810;27;46472;-53
2022/01/27 04:36:45;;;;;;;;;19.25;17.25;;;;;22.05;29.09;102644.03;5076492;27;45470;-54
2022/01/27 04:41:47;;;;;;;;;18.25;15.00;;;;;22.05;29.09;102644.03;5076925;27;45442;-56
2022/01/27 04:47:08;;;;;;;;;17.25;15.25;;;;;22.07;29.14;102651.91;5076357;27;45408;-55
2022/01/27 04:49:32;;;;;;;;;18.50;16.50;;;;;22.05;29.00;102651.94;5076560;27;45456;-56
2022/01/27 04:51:57;;;;;;;;;15.75;14.75;;;;;22.09;29.11;102650.09;5076707;27;45610;-60
2022/01/27 04:56:48;;;;;;;;;14.75;14.00;;;;;22.08;29.01;102638.66;5078745;28;45312;-52
2022/01/27 04:59:27;;;;;;;;;14.50;14.50;;;;;22.09;29.17;102642.16;5080041;27;45292;-64
2022/01/27 05:02:04;;;;;;;;;16.25;15.50;;;;;22.10;29.13;102638.63;5080471;27;45285;-60
2022/01/27 05:04:38;;;;;;;;;17.25;14.75;;;;;22.09;29.33;102637.72;5079877;27;45811;-60
2022/01/27 05:07:06;;;;;;;;;10.75;10.75;;;;;22.09;29.00;102632.44;5095969;27;45934;-62
2022/01/27 05:09:45;;;;;;;;;17.00;15.00;;;;;22.10;29.07;102635.97;5078697;28;45443;-61
2022/01/27 05:12:16;;;;;;;;;14.75;13.50;;;;;22.09;29.15;102640.38;5078609;28;45390;-61
2022/01/27 05:14:44;;;;;;;;;15.00;13.75;;;;;22.11;29.08;102635.03;5079621;27;47348;-60
2022/01/27 05:17:10;;;;;;;;;19.00;15.50;;;;;22.11;28.99;102635.03;5080011;27;45432;-58
2022/01/27 05:19:35;;;;;;;;;14.00;13.25;;;;;22.12;29.18;102628.00;5078695;27;45359;-62
2022/01/27 05:22:00;;;;;;;;;15.75;15.75;;;;;22.12;28.81;102636.75;5078779;28;45487;-62
2022/01/27 05:24:26;;;;;;;;;21.00;15.75;;;;;22.13;29.11;102633.22;5079483;27;46104;-53
2022/01/27 05:26:51;;;;;;;;;17.25;12.25;;;;;22.13;28.90;102638.50;5079966;27;45350;-59
2022/01/27 05:29:16;;;;;;;;;15.50;14.00;;;;;22.13;28.97;102630.56;5079690;27;45303;-58
2022/01/27 05:31:43;;;;;;;;;17.50;16.00;;;;;22.13;29.12;102629.72;5079834;27;45567;-52
2022/01/27 05:34:08;;;;;;;;;14.50;12.00;;;;;22.14;28.98;102626.16;5079445;27;46228;-57
2022/01/27 05:36:34;;;;;;;;;20.25;15.25;;;;;22.15;28.83;102631.38;5079331;28;45281;-62
2022/01/27 05:39:00;;;;;;;;;14.75;13.50;;;;;22.15;29.25;102626.09;5079551;27;45416;-62
2022/01/27 05:41:26;;;;;;;;;15.00;12.50;;;;;22.15;28.83;102627.91;5078576;27;45345;-63
2022/01/27 05:43:51;;;;;;;;;15.25;14.25;;;;;22.15;29.22;102623.47;5079585;27;46768;-60
2022/01/27 05:46:17;;;;;;;;;16.75;13.00;;;;;22.17;28.99;102631.31;5079293;27;45406;-63
2022/01/27 05:48:42;;;;;;;;;17.25;13.25;;;;;22.17;29.09;102626.91;5079433;27;45374;-62
2022/01/27 05:51:07;;;;;;;;;13.50;13.00;;;;;22.17;29.09;102619.00;5078110;28;45473;-63
2022/01/27 05:53:35;;;;;;;;;14.75;14.25;;;;;22.17;28.96;102616.34;5079083;27;45338;-61
2022/01/27 05:56:01;;;;;;;;;15.25;13.75;;;;;22.17;29.00;102613.72;5079121;27;45701;-62
2022/01/27 05:58:26;;;;;;;;;14.00;12.00;;;;;22.17;28.85;102611.06;5079424;27;45247;-50
2022/01/27 06:00:52;;;;;;;;;17.75;13.00;;;;;22.19;28.83;102611.00;5079778;27;45294;-56
2022/01/27 06:03:18;;;;;;;;;11.00;11.00;;;;;22.19;29.07;102611.88;5079216;27;46205;-62
2022/01/27 06:05:43;;;;;;;;;15.75;13.75;;;;;22.18;29.08;102615.44;5078736;27;45433;-60
2022/01/27 06:08:08;;;;;;;;;11.00;10.75;;;;;22.18;29.05;102615.44;5079107;27;45338;-62
2022/01/27 06:10:34;;;;;;;;;11.25;11.00;;;;;22.19;28.97;102619.81;5077860;28;45313;-63
2022/01/27 06:13:00;;;;;;;;;14.75;12.50;;;;;22.19;29.22;102632.13;5078477;27;46516;-57
2022/01/27 06:15:27;;;;;;;;;11.25;11.00;;;;;22.21;28.85;102632.97;5079198;27;45272;-62
2022/01/27 06:17:53;;;;;;;;;13.25;13.25;;;;;22.22;28.88;102634.69;5078821;27;45408;-62
2022/01/27 06:20:19;;;;;;;;;20.75;18.00;;;;;22.20;29.11;102637.38;5078851;27;45585;-60
2022/01/27 06:22:46;;;;;;;;;33.75;27.50;;;;;22.13;27.54;102642.91;5078515;27;45734;-64
2022/01/27 06:25:13;;;;;;;;;34.50;29.00;;;;;21.84;27.78;102642.97;5078639;27;45899;-61
2022/01/27 06:27:38;;;;;;;;;37.75;32.75;;;;;21.53;27.17;102641.28;5078809;27;45406;-62
2022/01/27 06:30:07;;;;;;;;;34.50;30.25;;;;;21.27;27.49;102647.34;5078800;27;45387;-61
2022/01/27 06:32:33;;;;;;;;;35.50;30.25;;;;;21.06;27.40;102646.19;5077209;28;46198;-63
2022/01/27 06:34:59;;;;;;;;;34.50;29.25;;;;;20.80;27.42;102640.75;5078662;27;45964;-59
2022/01/27 06:37:24;;;;;;;;;36.75;32.00;;;;;20.58;27.71;102647.47;5078801;27;45333;-62
2022/01/27 06:39:52;;;;;;;;;38.75;31.50;;;;;20.34;27.71;102648.06;5078794;27;45543;-63
2022/01/27 06:42:18;;;;;;;;;36.00;32.75;;;;;20.13;27.75;102648.59;5077050;28;47252;-66
2022/01/27 06:44:44;;;;;;;;;37.00;32.50;;;;;20.00;28.12;102656.84;5078265;28;45907;-67
2022/01/27 06:47:09;;;;;;;;;41.75;33.00;;;;;19.85;28.31;102650.13;5078404;27;45515;-62
2022/01/27 06:49:34;;;;;;;;;33.25;29.25;;;;;19.75;27.94;102654.75;5078356;27;45311;-66
2022/01/27 06:52:00;;;;;;;;;37.00;29.75;;;;;19.61;28.36;102652.44;5078100;27;45452;-53
2022/01/27 06:54:25;;;;;;;;;35.00;31.25;;;;;19.49;28.08;102657.97;5078663;27;45342;-66
2022/01/27 06:56:50;;;;;;;;;40.25;32.25;;;;;19.38;28.12;102647.66;5078261;27;45388;-62
2022/01/27 06:59:16;;;;;;;;;31.75;26.50;;;;;19.29;28.58;102653.13;5078308;27;45546;-64
2022/01/27 07:01:41;;;;;;;;;37.75;31.25;;;;;19.23;28.53;102655.91;5078076;27;45377;-61
2022/01/27 07:04:07;;;;;;;;;34.25;24.25;;;;;19.33;29.07;102646.91;5077784;27;45306;-61
2022/01/27 07:06:33;;;;;;;;;28.00;23.25;;;;;19.47;29.11;102655.34;5078036;28;45435;-61
2022/01/27 07:08:59;;;;;;;;;27.00;23.00;;;;;19.61;29.06;102660.31;5078366;27;45604;-61
2022/01/27 07:11:24;;;;;;;;;22.00;20.00;;;;;19.74;28.82;102663.53;5077606;27;45532;-61
2022/01/27 07:13:50;;;;;;;;;28.75;23.00;;;;;19.87;28.80;102673.81;5077922;27;45235;-61
2022/01/27 07:16:18;;;;;;;;;23.75;19.25;;;;;19.98;28.62;102674.44;5078287;27;45168;-55
2022/01/27 07:18:43;;;;;;;;;22.00;20.75;;;;;20.04;28.54;102658.47;5077372;27;45630;-56
2022/01/27 07:21:09;;;;;;;;;29.50;22.25;;;;;20.14;28.60;102664.38;5076319;28;47468;-63
2022/01/27 07:23:34;;;;;;;;;24.00;16.25;;;;;20.23;28.57;102665.91;5077694;28;45439;-58
2022/01/27 07:26:00;;;;;;;;;20.00;16.00;;;;;20.29;28.33;102652.59;5078080;27;45331;-59
2022/01/27 07:28:25;;;;;;;;;18.00;15.50;;;;;20.35;28.75;102656.84;5077905;27;45572;-60
2022/01/27 07:30:50;;;;;;;;;13.75;13.75;;;;;20.39;28.79;102646.19;5077646;27;45623;-50
2022/01/27 07:33:16;;;;;;;;;16.00;13.00;;;;;20.46;28.53;102657.44;5077489;27;45276;-58
2022/01/27 07:35:41;;;;;;;;;16.50;15.00;;;;;20.50;28.68;102652.94;5077689;27;45448;-57
2022/01/27 07:38:07;;;;;;;;;19.00;16.00;;;;;20.52;28.40;102652.00;5077892;27;45328;-46
2022/01/27 07:40:34;;;;;;;;;19.50;15.00;;;;;20.57;28.50;102646.59;5077320;28;46297;-54
2022/01/27 07:42:59;;;;;;;;;12.50;10.50;;;;;20.60;28.54;102643.88;5076403;28;45811;-53
2022/01/27 07:45:25;;;;;;;;;18.50;16.25;;;;;20.61;28.27;102650.91;5077476;27;45270;-49
2022/01/27 07:47:50;;;;;;;;;16.00;15.00;;;;;20.64;28.23;102650.81;5077650;27;45169;-54
2022/01/27 07:50:16;;;;;;;;;15.25;14.25;;;;;20.66;28.68;102649.00;5077317;27;46160;-51
2022/01/27 07:52:41;;;;;;;;;16.75;14.50;;;;;20.67;28.14;102649.88;5077263;27;45229;-57
2022/01/27 07:55:09;;;;;;;;;14.25;14.25;;;;;20.69;28.66;102658.59;5077373;27;45208;-52
2022/01/27 07:57:34;;;;;;;;;2.25;2.25;;;;;20.69;28.87;102651.53;5077449;27;45378;-61
2022/01/27 08:00:00;;;;;;;;;16.25;15.25;;;;;20.69;28.17;102656.81;5077268;27;46332;-52
2022/01/27 08:02:26;;;;;;;;;12.00;12.00;;;;;20.70;28.28;102653.28;5077020;27;45397;-52
2022/01/27 08:04:51;;;;;;;;;17.50;12.50;;;;;20.69;28.25;102648.91;5077087;28;45407;-61
2022/01/27 08:07:17;;;;;;;;;15.00;12.00;;;;;20.70;28.34;102661.19;5077364;27;45362;-66
2022/01/27 08:09:42;;;;;;;;;13.25;12.50;;;;;20.70;28.43;102658.53;5076869;27;46595;-53
2022/01/27 08:12:08;;;;;;;;;14.75;13.00;;;;;20.70;28.79;102661.19;5076691;27;45403;-63
2022/01/27 08:14:34;;;;;;;;;12.75;12.75;;;;;20.70;28.41;102657.69;5077173;27;45196;-52
2022/01/27 08:17:00;;;;;;;;;20.50;14.75;;;;;20.70;28.98;102661.19;5077148;28;45235;-64
2022/01/27 08:19:26;;;;;;;;;15.50;12.00;;;;;20.71;28.97;102662.06;5076680;27;46155;-63
2022/01/27 08:21:51;;;;;;;;;11.75;11.75;;;;;20.69;28.58;102656.81;5076890;27;45238;-66
2022/01/27 08:24:18;;;;;;;;;12.75;11.25;;;;;20.69;28.96;102664.72;5076815;27;45326;-66
2022/01/27 08:26:46;;;;;;;;;15.00;12.25;;;;;20.68;28.87;102662.97;5077127;27;45919;-62
2022/01/27 08:29:18;;;;;;;;;13.00;11.75;;;;;20.68;28.87;102673.53;5075510;27;46168;-65
2022/01/27 08:31:57;;;;;;;;;15.00;14.25;;;;;20.69;28.54;102671.78;5076419;27;45482;-62
2022/01/27 08:34:32;;;;;;;;;17.75;14.00;;;;;20.66;28.79;102667.47;5076277;27;45414;-67
2022/01/27 08:37:18;;;;;;;;;16.25;14.25;;;;;20.65;28.54;102670.13;5075226;28;45332;-63
2022/01/27 08:39:48;;;;;;;;;14.00;12.00;;;;;20.66;28.76;102675.38;5075958;27;45422;-62
2022/01/27 08:42:15;;;;;;;;;17.00;13.50;;;;;20.64;28.71;102677.16;5076262;27;45879;-54
2022/01/27 08:44:40;;;;;;;;;17.50;11.00;;;;;20.63;28.65;102670.16;5076470;27;45331;-64
2022/01/27 08:47:06;;;;;;;;;17.00;12.25;;;;;20.63;28.90;102671.91;5076606;28;45406;-61
2022/01/27 08:49:33;;;;;;;;;12.00;11.75;;;;;20.63;29.24;102677.19;5076410;28;45423;-63
2022/01/27 08:51:59;;;;;;;;;11.75;10.25;;;;;20.61;28.94;102671.97;5076248;27;45916;-66
2022/01/27 08:54:25;;;;;;;;;15.00;12.75;;;;;20.61;29.41;102671.13;5076273;27;45428;-56
2022/01/27 08:56:51;;;;;;;;;19.00;16.50;;;;;20.60;28.74;102664.13;5076294;27;45526;-66
2022/01/27 08:59:16;;;;;;;;;11.50;10.50;;;;;20.59;28.83;102667.66;5075910;27;45339;-59
2022/01/27 09:01:42;;;;;;;;;13.50;13.25;;;;;20.58;29.09;102660.66;5076096;27;45221;-64
2022/01/27 09:04:08;;;;;;;;;14.50;13.25;;;;;20.57;28.83;102658.91;5076144;27;45315;-66
2022/01/27 09:06:34;;;;;;;;;14.75;11.00;;;;;20.55;29.02;102656.34;5076778;27;45491;-67
2022/01/27 09:09:00;;;;;;;;;14.75;13.50;;;;;20.54;29.39;102650.19;5075764;27;46100;-66
2022/01/27 09:11:28;;;;;;;;;13.75;12.50;;;;;20.54;29.02;102644.06;5075582;27;45775;-66
2022/01/27 09:13:55;;;;;;;;;11.25;11.00;;;;;20.53;29.17;102639.69;5075708;27;45272;-63
2022/01/27 09:16:21;;;;;;;;;17.50;13.00;;;;;20.52;28.79;102645.88;5076330;27;45603;-63
2022/01/27 09:18:46;;;;;;;;;16.50;13.50;;;;;20.51;28.88;102638.88;5076070;27;46412;-66
2022/01/27 09:21:19;;;;;;;;;14.25;11.25;;;;;20.50;28.86;102643.28;5075986;28;45336;-67
2022/01/27 09:23:44;;;;;;;;;16.50;14.25;;;;;20.49;29.31;102638.94;5076009;27;45418;-65
2022/01/27 09:26:37;;;;;;;;;16.50;14.50;;;;;20.48;28.94;102639.81;5076075;27;45324;-62
2022/01/27 09:28:55;;;;;;;;;11.75;10.00;;;;;20.47;28.85;102639.84;5075546;27;45996;-66
2022/01/27 09:31:21;;;;;;;;;15.50;13.75;;;;;20.46;29.19;102639.00;5075746;27;45352;-66
2022/01/27 09:33:47;;;;;;;;;18.75;15.75;;;;;20.44;29.26;102637.31;5075680;27;45769;-57
2022/01/27 09:36:13;;;;;;;;;16.00;14.00;;;;;20.42;29.41;102642.59;5075926;27;45229;-66
2022/01/27 09:38:38;;;;;;;;;18.75;16.50;;;;;20.41;29.55;102640.88;5075548;27;45800;-61
2022/01/27 09:41:07;;;;;;;;;14.25;14.25;;;;;20.40;29.56;102641.78;5077969;27;45429;-60
2022/01/27 09:43:35;;;;;;;;;17.00;14.50;;;;;20.37;29.10;102637.47;5078298;27;45831;-54
2022/01/27 09:46:05;;;;;;;;;13.50;12.00;;;;;20.36;29.38;102641.00;5079522;27;45596;-58
2022/01/27 09:48:36;;;;;;;;;19.25;14.00;;;;;20.38;29.52;102638.34;5077646;28;47481;-58
2022/01/27 09:51:25;;;;;;;;;13.25;12.50;;;;;20.37;29.69;102640.09;5078862;27;45774;-60
2022/01/27 09:53:54;;;;;;;;;16.00;15.50;;;;;20.37;29.45;102637.47;5077560;28;45387;-51
2022/01/27 09:56:21;;;;;;;;;17.50;15.25;;;;;20.36;29.16;102640.16;5079111;27;45545;-55
2022/01/27 09:58:47;;;;;;;;;24.00;17.00;;;;;20.34;29.39;102632.25;5078816;28;45374;-58
2022/01/27 10:01:13;;;;;;;;;15.25;15.25;;;;;20.33;29.65;102635.84;5078945;27;46753;-58
2022/01/27 10:04:00;;;;;;;;;18.00;14.75;;;;;20.32;29.95;102633.22;5077088;28;45447;-60
2022/01/27 10:06:30;;;;;;;;;17.75;14.25;;;;;20.32;29.73;102633.22;5078134;27;45409;-52
2022/01/27 10:09:28;;;;;;;;;18.00;14.00;;;;;20.33;29.59;102638.47;5078411;27;46430;-60
2022/01/27 10:11:54;;;;;;;;;15.75;15.50;;;;;20.34;29.57;102632.25;5077917;28;45407;-63
2022/01/27 10:14:26;;;;;;;;;14.00;12.00;;;;;20.36;29.63;102640.16;5094496;27;45457;-64
2022/01/27 10:16:55;;;;;;;;;15.25;13.00;;;;;20.37;29.65;102637.47;5077708;28;45503;-63
2022/01/27 10:19:23;;;;;;;;;13.00;11.25;;;;;20.37;29.61;102633.97;5078382;27;46432;-68
2022/01/27 10:21:50;;;;;;;;;20.00;17.25;;;;;20.39;29.96;102637.44;5078745;27;45862;-66
2022/01/27 10:24:26;;;;;;;;;14.75;11.00;;;;;20.38;29.86;102636.56;5078336;27;45450;-68
2022/01/27 10:27:29;;;;;;;;;15.25;12.25;;;;;20.41;30.15;102647.94;5077474;28;45609;-71
2022/01/27 10:32:37;;;;;;;;;16.50;15.50;;;;;20.40;30.36;102633.88;5078437;27;45289;-68
2022/01/27 10:35:04;;;;;;;;;17.50;14.50;;;;;20.42;30.15;102639.97;5078316;27;45340;-59
2022/01/27 10:38:10;;;;;;;;;15.75;13.25;;;;;20.42;29.99;102637.34;5077152;28;45602;-72
2022/01/27 10:40:38;;;;;;;;;12.25;12.25;;;;;20.43;30.29;102630.31;5078131;27;46524;-69
2022/01/27 10:43:06;;;;;;;;;16.50;13.50;;;;;20.42;29.94;102631.22;5078008;27;45342;-71
2022/01/27 10:45:33;;;;;;;;;17.00;16.75;;;;;20.42;29.66;102624.16;5076729;28;45418;-71
2022/01/27 10:48:08;;;;;;;;;14.75;11.75;;;;;20.43;29.78;102617.16;5077073;28;45535;-69
2022/01/27 10:50:55;;;;;;;;;16.00;13.25;;;;;20.41;30.08;102624.22;5077914;27;45371;-67
2022/01/27 10:53:21;;;;;;;;;13.50;11.00;;;;;20.41;29.87;102622.44;5076719;27;46003;-61
2022/01/27 10:56:03;;;;;;;;;16.00;14.25;;;;;20.39;29.67;102625.13;5077904;27;45261;-63
2022/01/27 10:58:29;;;;;;;;;16.00;14.50;;;;;20.39;29.95;102611.97;5076452;28;45334;-60
2022/01/27 11:01:00;;;;;;;;;14.25;11.25;;;;;20.39;30.28;102625.13;5077908;27;46093;-64
2022/01/27 11:03:27;;;;;;;;;16.50;14.00;;;;;20.37;30.21;102621.66;5077482;27;46013;-64
2022/01/27 11:05:56;;;;;;;;;11.50;11.00;;;;;20.37;30.03;102621.66;5077686;27;45272;-64
2022/01/27 11:08:24;;;;;;;;;14.75;13.00;;;;;20.38;30.50;102620.75;5078358;27;45353;-65
2022/01/27 11:10:50;;;;;;;;;19.25;16.75;;;;;20.37;30.37;102626.94;5077578;27;45449;-66
2022/01/27 11:13:19;;;;;;;;;20.00;14.50;;;;;20.34;30.32;102621.72;5077625;28;45374;-67
2022/01/27 11:15:46;;;;;;;;;16.75;14.25;;;;;20.36;30.35;102630.47;5077521;27;45255;-67
2022/01/27 11:18:15;;;;;;;;;16.25;15.50;;;;;20.37;30.09;102641.88;5078268;27;45224;-62
2022/01/27 11:25:53;;;;;;;;;16.75;16.00;;;;;20.36;30.15;102625.19;5077450;27;45326;-65
2022/01/27 11:28:20;;;;;;;;;13.50;13.25;;;;;20.35;30.14;102633.16;5077622;27;45556;-63
2022/01/27 11:31:07;;;;;;;;;18.50;15.50;;;;;20.33;30.36;102616.53;5075826;28;47906;-63
2022/01/27 11:33:35;;;;;;;;;18.00;14.00;;;;;20.32;30.19;102623.56;5076243;28;45369;-61
2022/01/27 11:36:12;;;;;;;;;17.50;12.75;;;;;20.31;30.22;102613.06;5077264;27;45417;-60
2022/01/27 11:38:43;;;;;;;;;14.50;13.25;;;;;20.30;30.13;102612.22;5077716;28;45432;-61
2022/01/27 11:41:34;;;;;;;;;13.00;12.25;;;;;20.28;30.34;102611.38;5075778;28;45486;-63
2022/01/27 11:44:36;;;;;;;;;12.75;11.50;;;;;20.28;29.80;102611.38;5076845;27;45805;-64
2022/01/27 11:47:08;;;;;;;;;14.50;12.50;;;;;20.27;30.14;102599.09;5050317;27;45452;-61
2022/01/27 11:49:53;;;;;;;;;11.25;10.75;;;;;20.26;30.54;102602.66;5076966;27;45664;-59
2022/01/27 11:52:30;;;;;;;;;12.25;12.25;;;;;20.25;30.54;102590.38;5076786;27;45429;-59
2022/01/27 11:55:17;;;;;;;;;14.25;12.25;;;;;20.25;30.66;102582.47;5076770;27;45331;-56
2022/01/27 11:57:46;;;;;;;;;15.75;13.50;;;;;20.25;30.01;102574.59;5077244;28;45304;-58
2022/01/27 12:00:22;;;;;;;;;11.75;11.00;;;;;20.27;30.07;102583.31;5077472;27;45335;-58
2022/01/27 12:03:03;;;;;;;;;14.00;12.25;;;;;20.28;30.52;102579.78;5076675;27;45329;-57
2022/01/27 12:05:38;;;;;;;;;14.75;13.00;;;;;20.31;30.61;102579.72;5075289;27;45958;-58
2022/01/27 12:08:09;;;;;;;;;10.75;10.75;;;;;20.37;30.33;102576.03;5075586;28;45438;-55